createdAt,value
2017-03-09T00:00:09.879Z,29.4
2017-03-09T00:01:08.825Z,29.4
2017-03-09T00:02:08.828Z,29.4
2017-03-09T00:03:08.920Z,29.4
2017-03-09T00:04:08.882Z,29.4
2017-03-09T00:05:10.028Z,29.4
2017-03-09T00:06:09.967Z,29.4
2017-03-09T00:07:10.076Z,29.4
2017-03-09T00:08:10.096Z,29.4
2017-03-09T00:09:10.111Z,29.4
2017-03-09T00:10:09.210Z,29.4
2017-03-09T00:11:09.174Z,29.4
2017-03-09T00:12:10.284Z,29.4
2017-03-09T00:13:09.361Z,29.4
2017-03-09T00:14:10.412Z,29.4
2017-03-09T00:15:09.423Z,29.4
2017-03-09T00:16:09.425Z,29.4
2017-03-09T00:17:09.593Z,29.4
2017-03-09T00:18:10.600Z,29.4
2017-03-09T00:19:09.623Z,29.4
2017-03-09T00:20:09.729Z,29.4
2017-03-09T00:21:09.737Z,29.4
2017-03-09T00:22:09.834Z,29.4
2017-03-09T00:23:10.882Z,29.4
2017-03-09T00:24:11.005Z,29.4
2017-03-09T00:25:11.075Z,29.4
2017-03-09T00:26:11.017Z,29.4
2017-03-09T00:27:11.055Z,29.4
2017-03-09T00:28:10.050Z,29.4
2017-03-09T00:29:11.153Z,29.4
2017-03-09T00:30:10.228Z,29.4
2017-03-09T00:31:11.221Z,29.4
2017-03-09T00:32:10.298Z,29.4
2017-03-09T00:33:11.398Z,29.4
2017-03-09T00:34:10.271Z,29.4
2017-03-09T00:35:11.392Z,29.4
2017-03-09T00:36:10.377Z,29.4
2017-03-09T00:37:11.548Z,29.4
2017-03-09T00:38:10.431Z,29.4
2017-03-09T00:39:11.542Z,29.4
2017-03-09T00:40:11.692Z,29.4
2017-03-09T00:41:11.790Z,29.4
2017-03-09T00:42:11.729Z,29.4
2017-03-09T00:43:10.799Z,29.4
2017-03-09T00:44:10.769Z,29.4
2017-03-09T00:45:10.840Z,29.4
2017-03-09T00:46:10.884Z,29.4
2017-03-09T00:47:10.965Z,29.4
2017-03-09T00:48:11.139Z,29.4
2017-03-09T00:49:11.175Z,29.4
2017-03-09T00:50:11.170Z,29.4
2017-03-09T00:51:12.265Z,29.4
2017-03-09T00:52:12.336Z,29.4
2017-03-09T00:53:12.383Z,29.4
2017-03-09T00:54:11.491Z,29.4
2017-03-09T00:55:11.443Z,29.4
2017-03-09T00:56:11.547Z,29.4
2017-03-09T00:57:11.650Z,29.4
2017-03-09T00:58:12.733Z,29.4
2017-03-09T00:59:12.752Z,29.4
2017-03-09T01:00:11.798Z,29.4
2017-03-09T01:01:11.721Z,29.4
2017-03-09T01:02:11.750Z,29.4
2017-03-09T01:03:11.842Z,29.4
2017-03-09T01:04:11.970Z,29.4
2017-03-09T01:05:11.930Z,29.3
2017-03-09T01:06:13.097Z,29.3
2017-03-09T01:07:13.143Z,29.3
2017-03-09T01:08:12.219Z,29.3
2017-03-09T01:09:12.285Z,29.4
2017-03-09T01:10:12.335Z,29.4
2017-03-09T01:11:13.326Z,29.4
2017-03-09T01:12:13.460Z,29.3
2017-03-09T01:13:12.492Z,29.4
2017-03-09T01:14:12.437Z,29.3
2017-03-09T01:15:13.602Z,29.3
2017-03-09T01:16:13.658Z,29.3
2017-03-09T01:17:13.710Z,29.3
2017-03-09T01:18:13.786Z,29.3
2017-03-09T01:19:13.919Z,29.3
2017-03-09T01:20:13.869Z,29.3
2017-03-09T01:21:13.943Z,29.3
2017-03-09T01:22:14.024Z,29.3
2017-03-09T01:23:13.049Z,29.3
2017-03-09T01:24:13.101Z,29.3
2017-03-09T01:25:14.141Z,29.3
2017-03-09T01:26:13.280Z,29.3
2017-03-09T01:27:13.303Z,29.3
2017-03-09T01:28:13.375Z,29.3
2017-03-09T01:29:14.425Z,29.3
2017-03-09T01:30:13.436Z,29.3
2017-03-09T01:31:14.501Z,29.3
2017-03-09T01:32:13.414Z,29.3
2017-03-09T01:33:14.629Z,29.3
2017-03-09T01:34:14.584Z,29.3
2017-03-09T01:35:13.656Z,29.3
2017-03-09T01:36:14.774Z,29.3
2017-03-09T01:37:13.841Z,29.3
2017-03-09T01:38:14.949Z,29.3
2017-03-09T01:39:15.058Z,29.3
2017-03-09T01:40:13.934Z,29.3
2017-03-09T01:41:15.066Z,29.3
2017-03-09T01:42:15.126Z,29.3
2017-03-09T01:43:14.070Z,29.3
2017-03-09T01:44:14.209Z,29.3
2017-03-09T01:45:14.272Z,29.3
2017-03-09T01:46:14.317Z,29.3
2017-03-09T01:47:15.348Z,29.3
2017-03-09T01:48:15.474Z,29.3
2017-03-09T01:49:14.365Z,29.3
2017-03-09T01:50:14.430Z,29.3
2017-03-09T01:51:14.593Z,29.3
2017-03-09T01:52:14.638Z,29.3
2017-03-09T01:53:15.918Z,29.3
2017-03-09T01:54:14.807Z,29.3
2017-03-09T01:55:15.920Z,29.3
2017-03-09T01:56:15.851Z,29.3
2017-03-09T01:57:15.919Z,29.3
2017-03-09T01:58:14.853Z,29.3
2017-03-09T01:59:16.157Z,29.3
2017-03-09T02:00:16.000Z,29.3
2017-03-09T02:01:17.398Z,29.3
2017-03-09T02:02:15.075Z,29.3
2017-03-09T02:03:16.134Z,29.3
2017-03-09T02:04:16.278Z,29.3
2017-03-09T02:05:16.463Z,29.3
2017-03-09T02:06:16.287Z,29.3
2017-03-09T02:07:15.282Z,29.3
2017-03-09T02:08:15.440Z,29.3
2017-03-09T02:09:16.568Z,29.3
2017-03-09T02:10:15.428Z,29.3
2017-03-09T02:11:15.654Z,29.3
2017-03-09T02:12:16.631Z,29.3
2017-03-09T02:13:16.647Z,29.3
2017-03-09T02:14:15.642Z,29.3
2017-03-09T02:15:15.747Z,29.3
2017-03-09T02:16:16.501Z,29.3
2017-03-09T02:17:16.080Z,29.3
2017-03-09T02:18:15.901Z,29.3
2017-03-09T02:19:16.956Z,29.3
2017-03-09T02:20:15.980Z,29.3
2017-03-09T02:21:16.037Z,29.3
2017-03-09T02:22:16.117Z,29.3
2017-03-09T02:23:17.369Z,29.3
2017-03-09T02:24:16.215Z,29.3
2017-03-09T02:25:16.239Z,29.3
2017-03-09T02:26:16.359Z,29.3
2017-03-09T02:27:17.373Z,29.3
2017-03-09T02:28:16.421Z,29.3
2017-03-09T02:29:16.694Z,29.3
2017-03-09T02:30:16.530Z,29.3
2017-03-09T02:31:16.542Z,29.3
2017-03-09T02:32:17.573Z,29.3
2017-03-09T02:33:16.668Z,29.3
2017-03-09T02:34:17.708Z,29.3
2017-03-09T02:35:16.894Z,29.3
2017-03-09T02:36:17.914Z,29.3
2017-03-09T02:37:16.945Z,29.3
2017-03-09T02:38:16.932Z,29.3
2017-03-09T02:39:17.965Z,29.3
2017-03-09T02:40:17.015Z,29.3
2017-03-09T02:41:17.130Z,29.3
2017-03-09T02:42:17.065Z,29.3
2017-03-09T02:43:17.248Z,29.3
2017-03-09T02:44:17.147Z,29.3
2017-03-09T02:45:17.207Z,29.3
2017-03-09T02:46:18.409Z,29.3
2017-03-09T02:47:18.606Z,29.3
2017-03-09T02:48:18.458Z,29.3
2017-03-09T02:49:17.553Z,29.3
2017-03-09T02:50:18.696Z,29.3
2017-03-09T02:51:18.658Z,29.3
2017-03-09T02:52:17.791Z,29.3
2017-03-09T02:53:18.799Z,29.3
2017-03-09T02:54:17.730Z,29.3
2017-03-09T02:55:17.783Z,29.3
2017-03-09T02:56:19.041Z,29.3
2017-03-09T02:57:17.991Z,29.3
2017-03-09T02:58:19.191Z,29.3
2017-03-09T02:59:19.138Z,29.3
2017-03-09T03:00:19.131Z,29.3
2017-03-09T03:01:19.268Z,29.3
2017-03-09T03:02:18.223Z,29.3
2017-03-09T03:03:18.313Z,29.3
2017-03-09T03:04:19.706Z,29.3
2017-03-09T03:05:18.507Z,29.3
2017-03-09T03:06:18.602Z,29.3
2017-03-09T03:07:19.859Z,29.3
2017-03-09T03:08:18.829Z,29.3
2017-03-09T03:09:18.800Z,29.3
2017-03-09T03:10:20.157Z,29.3
2017-03-09T03:11:20.019Z,29.3
2017-03-09T03:12:19.003Z,29.3
2017-03-09T03:13:19.127Z,29.3
2017-03-09T03:14:20.170Z,29.3
2017-03-09T03:15:19.167Z,29.3
2017-03-09T03:16:19.312Z,29.3
2017-03-09T03:17:19.258Z,29.3
2017-03-09T03:18:19.196Z,29.3
2017-03-09T03:19:19.272Z,29.3
2017-03-09T03:20:20.509Z,29.3
2017-03-09T03:21:20.558Z,29.3
2017-03-09T03:22:19.706Z,29.3
2017-03-09T03:23:20.525Z,29.3
2017-03-09T03:24:20.598Z,29.3
2017-03-09T03:25:20.603Z,29.3
2017-03-09T03:26:19.648Z,29.3
2017-03-09T03:27:19.690Z,29.3
2017-03-09T03:28:19.868Z,29.3
2017-03-09T03:29:19.617Z,29.3
2017-03-09T03:30:19.657Z,29.3
2017-03-09T03:31:20.773Z,29.3
2017-03-09T03:32:19.767Z,29.3
2017-03-09T03:33:20.951Z,29.3
2017-03-09T03:34:20.065Z,29.3
2017-03-09T03:35:20.959Z,29.3
2017-03-09T03:36:20.953Z,29.2
2017-03-09T03:37:20.031Z,29.2
2017-03-09T03:38:19.965Z,29.2
2017-03-09T03:39:20.099Z,29.2
2017-03-09T03:40:20.295Z,29.2
2017-03-09T03:41:20.158Z,29.2
2017-03-09T03:42:21.206Z,29.2
2017-03-09T03:43:21.361Z,29.2
2017-03-09T03:44:20.259Z,29.2
2017-03-09T03:45:20.359Z,29.2
2017-03-09T03:46:21.754Z,29.2
2017-03-09T03:47:21.621Z,29.2
2017-03-09T03:48:20.553Z,29.2
2017-03-09T03:49:21.728Z,29.2
2017-03-09T03:50:21.773Z,29.2
2017-03-09T03:51:21.857Z,29.2
2017-03-09T03:52:22.155Z,29.2
2017-03-09T03:53:20.982Z,29.2
2017-03-09T03:54:22.113Z,29.2
2017-03-09T03:55:22.183Z,29.2
2017-03-09T03:56:22.167Z,29.2
2017-03-09T03:57:21.188Z,29.2
2017-03-09T03:58:21.540Z,29.2
2017-03-09T03:59:22.482Z,29.2
2017-03-09T04:00:21.474Z,29.2
2017-03-09T04:01:22.497Z,29.2
2017-03-09T04:02:21.452Z,29.2
2017-03-09T04:03:22.603Z,29.2
2017-03-09T04:04:22.758Z,29.2
2017-03-09T04:05:21.583Z,29.2
2017-03-09T04:06:21.733Z,29.2
2017-03-09T04:07:22.760Z,29.2
2017-03-09T04:08:21.697Z,29.2
2017-03-09T04:09:22.918Z,29.2
2017-03-09T04:10:23.106Z,29.2
2017-03-09T04:11:22.945Z,29.2
2017-03-09T04:12:22.949Z,29.2
2017-03-09T04:13:23.015Z,29.2
2017-03-09T04:14:23.092Z,29.2
2017-03-09T04:15:22.104Z,29.2
2017-03-09T04:16:22.468Z,29.2
2017-03-09T04:17:22.341Z,29.2
2017-03-09T04:18:22.419Z,29.2
2017-03-09T04:19:23.523Z,29.2
2017-03-09T04:20:23.563Z,29.2
2017-03-09T04:21:23.565Z,29.2
2017-03-09T04:22:23.713Z,29.2
2017-03-09T04:23:23.647Z,29.2
2017-03-09T04:24:23.647Z,29.2
2017-03-09T04:25:22.656Z,29.2
2017-03-09T04:26:23.879Z,29.2
2017-03-09T04:27:22.846Z,29.2
2017-03-09T04:28:24.133Z,29.2
2017-03-09T04:29:23.975Z,29.2
2017-03-09T04:30:23.054Z,29.2
2017-03-09T04:31:23.009Z,29.2
2017-03-09T04:32:24.131Z,29.2
2017-03-09T04:33:24.242Z,29.2
2017-03-09T04:34:23.449Z,29.2
2017-03-09T04:35:23.284Z,29.2
2017-03-09T04:36:23.323Z,29.2
2017-03-09T04:37:23.511Z,29.3
2017-03-09T04:38:23.509Z,29.4
2017-03-09T04:39:23.518Z,29.5
2017-03-09T04:40:23.689Z,29.9
2017-03-09T04:41:24.669Z,30.3
2017-03-09T04:42:23.693Z,30.4
2017-03-09T04:43:23.721Z,30.4
2017-03-09T04:44:23.718Z,30.6
2017-03-09T04:45:24.834Z,30.8
2017-03-09T04:46:24.094Z,31
2017-03-09T04:47:25.006Z,31.3
2017-03-09T04:48:25.069Z,31.6
2017-03-09T04:49:23.988Z,31.8
2017-03-09T04:50:25.150Z,32
2017-03-09T04:51:24.127Z,32.2
2017-03-09T04:52:25.397Z,32.5
2017-03-09T04:53:25.322Z,32.8
2017-03-09T04:54:24.179Z,32.9
2017-03-09T04:55:24.286Z,32.9
2017-03-09T04:56:25.352Z,33
2017-03-09T04:57:25.366Z,33.1
2017-03-09T04:58:25.645Z,33.4
2017-03-09T04:59:24.487Z,33.5
2017-03-09T05:00:25.468Z,33.5
2017-03-09T05:01:24.456Z,33.6
2017-03-09T05:02:24.474Z,33.6
2017-03-09T05:03:24.522Z,33.6
2017-03-09T05:04:25.799Z,33.6
2017-03-09T05:05:25.616Z,33.6
2017-03-09T05:06:24.562Z,33.6
2017-03-09T05:07:24.689Z,33.5
2017-03-09T05:08:24.807Z,33.5
2017-03-09T05:09:24.818Z,33.5
2017-03-09T05:10:26.095Z,33.5
2017-03-09T05:11:24.937Z,33.4
2017-03-09T05:12:25.020Z,33.4
2017-03-09T05:13:25.120Z,33.4
2017-03-09T05:14:25.128Z,33.4
2017-03-09T05:15:25.213Z,33.3
2017-03-09T05:16:25.385Z,33.3
2017-03-09T05:17:25.415Z,33.3
2017-03-09T05:18:25.397Z,33.3
2017-03-09T05:19:26.465Z,33.2
2017-03-09T05:20:25.549Z,33.2
2017-03-09T05:21:26.567Z,33.2
2017-03-09T05:22:25.887Z,33.2
2017-03-09T05:23:25.530Z,33.2
2017-03-09T05:24:26.653Z,33.1
2017-03-09T05:25:26.765Z,33.1
2017-03-09T05:26:26.903Z,33.1
2017-03-09T05:27:26.811Z,33.1
2017-03-09T05:28:27.224Z,33
2017-03-09T05:29:26.924Z,33
2017-03-09T05:30:25.934Z,33
2017-03-09T05:31:26.994Z,33
2017-03-09T05:32:27.142Z,32.9
2017-03-09T05:33:27.218Z,32.9
2017-03-09T05:34:27.463Z,32.9
2017-03-09T05:35:26.196Z,32.9
2017-03-09T05:36:26.233Z,32.9
2017-03-09T05:37:26.212Z,32.9
2017-03-09T05:38:26.300Z,32.8
2017-03-09T05:39:26.353Z,32.8
2017-03-09T05:40:26.574Z,32.8
2017-03-09T05:41:27.451Z,32.8
2017-03-09T05:42:26.509Z,32.7
2017-03-09T05:43:27.560Z,32.7
2017-03-09T05:44:26.577Z,32.7
2017-03-09T05:45:27.912Z,32.7
2017-03-09T05:46:26.703Z,32.7
2017-03-09T05:47:26.834Z,32.7
2017-03-09T05:48:27.899Z,32.6
2017-03-09T05:49:27.925Z,32.6
2017-03-09T05:50:26.950Z,32.6
2017-03-09T05:51:27.066Z,32.5
2017-03-09T05:52:26.992Z,32.5
2017-03-09T05:53:26.958Z,32.5
2017-03-09T05:54:28.205Z,32.5
2017-03-09T05:55:28.320Z,32.4
2017-03-09T05:56:28.203Z,32.4
2017-03-09T05:57:28.487Z,32.4
2017-03-09T05:58:28.308Z,32.3
2017-03-09T05:59:28.357Z,32.3
2017-03-09T06:00:27.356Z,32.3
2017-03-09T06:01:27.469Z,32.3
2017-03-09T06:02:28.478Z,32.3
2017-03-09T06:03:27.895Z,32.2
2017-03-09T06:04:27.612Z,32.2
2017-03-09T06:05:27.569Z,32.2
2017-03-09T06:06:27.663Z,32.2
2017-03-09T06:07:27.642Z,32.1
2017-03-09T06:08:28.782Z,32.1
2017-03-09T06:09:27.881Z,32.1
2017-03-09T06:10:28.918Z,32.1
2017-03-09T06:11:27.847Z,32.1
2017-03-09T06:12:29.046Z,32
2017-03-09T06:13:29.053Z,32
2017-03-09T06:14:29.159Z,32
2017-03-09T06:15:29.408Z,32
2017-03-09T06:16:29.179Z,32
2017-03-09T06:17:29.414Z,32
2017-03-09T06:18:28.211Z,31.9
2017-03-09T06:19:28.336Z,31.9
2017-03-09T06:20:28.352Z,31.9
2017-03-09T06:21:28.613Z,31.9
2017-03-09T06:22:28.344Z,31.9
2017-03-09T06:23:28.317Z,31.8
2017-03-09T06:24:28.355Z,31.8
2017-03-09T06:25:28.537Z,31.8
2017-03-09T06:26:29.546Z,31.8
2017-03-09T06:27:29.925Z,31.8
2017-03-09T06:28:29.636Z,31.7
2017-03-09T06:29:28.603Z,31.7
2017-03-09T06:30:30.443Z,31.7
2017-03-09T06:31:29.760Z,31.7
2017-03-09T06:32:28.746Z,31.7
2017-03-09T06:33:29.073Z,31.7
2017-03-09T06:34:28.812Z,31.7
2017-03-09T06:35:28.845Z,31.6
2017-03-09T06:36:29.960Z,31.6
2017-03-09T06:37:30.709Z,31.6
2017-03-09T06:38:30.102Z,31.6
2017-03-09T06:39:30.491Z,31.6
2017-03-09T06:40:30.917Z,31.5
2017-03-09T06:41:29.823Z,31.5
2017-03-09T06:42:30.354Z,31.5
2017-03-09T06:43:30.401Z,31.5
2017-03-09T06:44:29.391Z,31.5
2017-03-09T06:45:30.677Z,31.5
2017-03-09T06:46:29.416Z,31.5
2017-03-09T06:47:29.495Z,30.6
2017-03-09T06:48:29.500Z,29.9
2017-03-09T06:49:30.634Z,30.6
2017-03-09T06:50:30.639Z,30.9
2017-03-09T06:51:30.668Z,30.9
2017-03-09T06:52:29.673Z,31.9
2017-03-09T06:53:29.688Z,32.8
2017-03-09T06:54:30.761Z,33.5
2017-03-09T06:55:30.927Z,33.7
2017-03-09T06:56:31.565Z,34
2017-03-09T06:57:30.910Z,34.3
2017-03-09T06:58:32.056Z,34.2
2017-03-09T06:59:31.090Z,34.5
2017-03-09T07:00:30.554Z,34.6
2017-03-09T07:01:31.164Z,34.6
2017-03-09T07:02:31.226Z,34.6
2017-03-09T07:03:30.255Z,34.5
2017-03-09T07:04:31.277Z,34.6
2017-03-09T07:05:30.373Z,34.6
2017-03-09T07:06:31.479Z,34.6
2017-03-09T07:07:30.364Z,34.5
2017-03-09T07:08:30.448Z,34.5
2017-03-09T07:09:30.548Z,34.5
2017-03-09T07:10:30.596Z,34.3
2017-03-09T07:11:30.618Z,34.6
2017-03-09T07:12:31.751Z,34.7
2017-03-09T07:13:31.883Z,34.8
2017-03-09T07:14:31.866Z,35.1
2017-03-09T07:15:30.863Z,35.1
2017-03-09T07:16:31.015Z,35
2017-03-09T07:17:31.025Z,34.9
2017-03-09T07:18:31.723Z,34.8
2017-03-09T07:19:31.062Z,34.6
2017-03-09T07:20:32.875Z,34.4
2017-03-09T07:21:32.907Z,34.3
2017-03-09T07:22:32.411Z,34.1
2017-03-09T07:23:31.287Z,34
2017-03-09T07:24:32.550Z,33.9
2017-03-09T07:25:31.369Z,33.7
2017-03-09T07:26:32.543Z,33.6
2017-03-09T07:27:32.563Z,33.5
2017-03-09T07:28:31.571Z,33.4
2017-03-09T07:29:32.905Z,33.3
2017-03-09T07:30:32.775Z,33.2
2017-03-09T07:31:31.812Z,33.1
2017-03-09T07:32:31.888Z,33
2017-03-09T07:33:32.901Z,32.9
2017-03-09T07:34:31.923Z,32.8
2017-03-09T07:35:32.984Z,32.8
2017-03-09T07:36:33.534Z,32.7
2017-03-09T07:37:32.047Z,32.7
2017-03-09T07:38:33.131Z,32.6
2017-03-09T07:39:34.057Z,32.6
2017-03-09T07:40:33.160Z,32.5
2017-03-09T07:41:33.250Z,32.5
2017-03-09T07:42:33.259Z,32.4
2017-03-09T07:43:32.278Z,32.4
2017-03-09T07:44:32.289Z,32.3
2017-03-09T07:45:33.339Z,32.3
2017-03-09T07:46:32.361Z,32.2
2017-03-09T07:47:33.403Z,32.2
2017-03-09T07:48:32.404Z,32.2
2017-03-09T07:49:33.524Z,32.2
2017-03-09T07:50:34.141Z,32.1
2017-03-09T07:51:33.619Z,32.1
2017-03-09T07:52:32.660Z,32.1
2017-03-09T07:53:35.320Z,32
2017-03-09T07:54:33.835Z,32
2017-03-09T07:55:32.776Z,32
2017-03-09T07:56:33.951Z,32
2017-03-09T07:57:34.680Z,32
2017-03-09T07:58:32.987Z,32
2017-03-09T07:59:34.114Z,31.9
2017-03-09T08:00:33.082Z,31.9
2017-03-09T08:01:34.137Z,31.9
2017-03-09T08:02:34.193Z,31.9
2017-03-09T08:03:34.305Z,31.9
2017-03-09T08:04:33.313Z,31.9
2017-03-09T08:05:34.423Z,31.9
2017-03-09T08:06:34.486Z,31.8
2017-03-09T08:07:33.463Z,31.8
2017-03-09T08:08:34.613Z,31.8
2017-03-09T08:09:33.541Z,31.8
2017-03-09T08:10:33.535Z,31.8
2017-03-09T08:11:34.295Z,31.8
2017-03-09T08:12:33.712Z,31.7
2017-03-09T08:13:33.731Z,31.7
2017-03-09T08:14:33.813Z,31.7
2017-03-09T08:15:33.899Z,31.7
2017-03-09T08:16:33.857Z,31.7
2017-03-09T08:17:34.646Z,31.7
2017-03-09T08:18:35.058Z,31.7
2017-03-09T08:19:34.133Z,31.7
2017-03-09T08:20:35.221Z,31.6
2017-03-09T08:21:34.128Z,31.6
2017-03-09T08:22:35.323Z,31.6
2017-03-09T08:23:34.247Z,31.6
2017-03-09T08:24:34.273Z,31.6
2017-03-09T08:25:35.460Z,31.6
2017-03-09T08:26:35.524Z,31.5
2017-03-09T08:27:34.512Z,31.5
2017-03-09T08:28:35.654Z,31.5
2017-03-09T08:29:35.914Z,31.5
2017-03-09T08:30:34.704Z,31.5
2017-03-09T08:31:37.449Z,31.5
2017-03-09T08:32:35.843Z,31.5
2017-03-09T08:33:36.891Z,31.5
2017-03-09T08:34:37.365Z,31.5
2017-03-09T08:35:36.184Z,31.5
2017-03-09T08:36:37.092Z,31.5
2017-03-09T08:39:35.252Z,31.3
2017-03-09T08:40:36.360Z,31.3
2017-03-09T08:41:36.065Z,31.3
2017-03-09T08:42:37.457Z,31.3
2017-03-09T08:43:35.503Z,31.3
2017-03-09T08:44:37.047Z,31.3
2017-03-09T08:45:37.599Z,31.3
2017-03-09T08:46:35.616Z,31.3
2017-03-09T08:47:37.873Z,31.3
2017-03-09T08:48:35.658Z,31.3
2017-03-09T08:49:37.502Z,31.3
2017-03-09T08:50:38.214Z,31.3
2017-03-09T08:51:37.860Z,31.3
2017-03-09T08:52:38.213Z,31.3
2017-03-09T08:53:37.048Z,31.3
2017-03-09T08:54:36.014Z,31.3
2017-03-09T08:55:36.068Z,31.3
2017-03-09T08:56:36.691Z,31.3
2017-03-09T08:57:36.706Z,31.3
2017-03-09T08:58:37.373Z,31.3
2017-03-09T08:59:36.362Z,31.2
2017-03-09T09:00:36.970Z,31.3
2017-03-09T09:01:36.485Z,31.2
2017-03-09T09:02:36.402Z,31.3
2017-03-09T09:03:36.487Z,31.3
2017-03-09T09:04:36.638Z,31.3
2017-03-09T09:05:38.236Z,31.3
2017-03-09T09:06:37.716Z,31.2
2017-03-09T09:07:37.878Z,31.3
2017-03-09T09:08:36.838Z,31.2
2017-03-09T09:09:37.955Z,31.2
2017-03-09T09:10:37.974Z,31.3
2017-03-09T09:11:37.648Z,31.3
2017-03-09T09:12:40.011Z,31.3
2017-03-09T09:13:38.084Z,31.3
2017-03-09T09:14:38.715Z,31.3
2017-03-09T09:15:37.125Z,31.3
2017-03-09T09:16:38.297Z,31.3
2017-03-09T09:17:38.372Z,31.3
2017-03-09T09:18:37.397Z,31.3
2017-03-09T09:19:38.037Z,31.3
2017-03-09T09:20:37.938Z,31.3
2017-03-09T09:21:39.192Z,31.3
2017-03-09T09:22:37.633Z,31.3
2017-03-09T09:23:37.562Z,31.3
2017-03-09T09:24:38.637Z,31.3
2017-03-09T09:25:37.625Z,31.3
2017-03-09T09:26:37.774Z,31.3
2017-03-09T09:27:38.797Z,31.3
2017-03-09T09:28:38.886Z,31.3
2017-03-09T09:29:40.554Z,31.3
2017-03-09T09:30:38.978Z,31.3
2017-03-09T09:31:38.415Z,31.3
2017-03-09T09:32:39.724Z,31.3
2017-03-09T09:33:38.553Z,31.3
2017-03-09T09:34:51.162Z,31.3
2017-03-09T09:35:44.415Z,31.3
2017-03-09T09:36:50.680Z,31.3
2017-03-09T09:37:45.620Z,31.3
2017-03-09T09:38:43.659Z,31.3
2017-03-09T09:39:43.139Z,31.3
2017-03-09T09:40:46.775Z,31.3
2017-03-09T09:42:41.881Z,31.3
2017-03-09T09:43:50.682Z,31.3
2017-03-09T09:44:43.642Z,31.3
2017-03-09T09:45:50.408Z,31.3
2017-03-09T09:46:43.593Z,31.3
2017-03-09T09:47:38.894Z,31.3
2017-03-09T09:48:39.588Z,31.3
2017-03-09T09:49:39.117Z,31.3
2017-03-09T09:50:39.267Z,31.3
2017-03-09T09:51:39.357Z,31.3
2017-03-09T09:52:38.611Z,31.3
2017-03-09T09:53:39.689Z,31.3
2017-03-09T09:54:38.612Z,31.2
2017-03-09T09:57:42.668Z,31.2
2017-03-09T09:58:39.890Z,31.2
2017-03-09T09:59:41.177Z,31.1
2017-03-09T10:00:41.235Z,31.1
2017-03-09T10:01:45.450Z,31.1
2017-03-09T10:02:40.021Z,31.1
2017-03-09T10:03:39.042Z,31
2017-03-09T10:04:39.872Z,31
2017-03-09T10:05:40.137Z,30.9
2017-03-09T10:06:39.147Z,30.8
2017-03-09T10:07:39.840Z,30.7
2017-03-09T10:08:47.611Z,30.7
2017-03-09T10:09:43.208Z,30.6
2017-03-09T10:10:40.460Z,30.6
2017-03-09T10:11:41.799Z,30.5
2017-03-09T10:12:39.442Z,30.5
2017-03-09T10:13:39.535Z,30.4
2017-03-09T10:14:40.354Z,30.3
2017-03-09T10:15:42.247Z,30.2
2017-03-09T10:16:39.723Z,30.2
2017-03-09T10:17:44.158Z,30.1
2017-03-09T10:18:41.534Z,30.1
2017-03-09T10:19:42.213Z,30
2017-03-09T10:20:43.671Z,29.9
2017-03-09T10:21:40.947Z,29.9
2017-03-09T10:22:40.071Z,29.9
2017-03-09T10:23:41.339Z,29.8
2017-03-09T10:24:42.320Z,29.8
2017-03-09T10:25:40.157Z,29.8
2017-03-09T10:26:42.476Z,29.8
2017-03-09T10:27:40.988Z,29.8
2017-03-09T10:28:44.009Z,29.8
2017-03-09T10:29:42.295Z,29.8
2017-03-09T10:30:41.317Z,29.8
2017-03-09T10:31:41.406Z,29.8
2017-03-09T10:32:43.162Z,29.8
2017-03-09T10:33:40.410Z,29.8
2017-03-09T10:34:40.534Z,29.8
2017-03-09T10:35:44.651Z,29.8
2017-03-09T10:36:41.223Z,29.8
2017-03-09T10:37:41.738Z,29.8
2017-03-09T10:38:41.601Z,29.8
2017-03-09T10:39:42.646Z,29.8
2017-03-09T10:40:41.918Z,29.8
2017-03-09T10:41:41.135Z,29.8
2017-03-09T10:42:41.027Z,30.1
2017-03-09T10:43:41.150Z,30.8
2017-03-09T10:44:42.675Z,31.3
2017-03-09T10:45:42.278Z,31.9
2017-03-09T10:46:42.289Z,32.4
2017-03-09T10:47:42.514Z,32.9
2017-03-09T10:48:42.606Z,33.2
2017-03-09T10:49:42.643Z,33.7
2017-03-09T10:50:42.541Z,34.1
2017-03-09T10:51:41.572Z,34.4
2017-03-09T10:52:41.535Z,34.7
2017-03-09T10:53:42.742Z,35
2017-03-09T10:54:43.181Z,35.2
2017-03-09T10:55:42.751Z,35.4
2017-03-09T10:56:42.742Z,35.8
2017-03-09T10:57:42.771Z,36
2017-03-09T10:58:41.722Z,36.1
2017-03-09T10:59:41.793Z,36.2
2017-03-09T11:00:42.842Z,36.2
2017-03-09T11:01:41.847Z,36.2
2017-03-09T11:02:44.204Z,36.3
2017-03-09T11:03:41.880Z,36.3
2017-03-09T11:04:41.991Z,36.3
2017-03-09T11:05:44.066Z,36.5
2017-03-09T11:06:54.823Z,36.7
2017-03-09T11:07:42.249Z,36.9
2017-03-09T11:08:42.246Z,37.1
2017-03-09T11:09:43.344Z,37.3
2017-03-09T11:10:42.442Z,37.5
2017-03-09T11:11:43.602Z,37.6
2017-03-09T11:12:44.014Z,37.8
2017-03-09T11:14:43.151Z,38.1
2017-03-09T11:15:44.191Z,38.2
2017-03-09T11:16:43.615Z,38.3
2017-03-09T11:17:45.767Z,38.6
2017-03-09T11:18:43.691Z,38.6
2017-03-09T11:19:42.697Z,38.7
2017-03-09T11:20:43.354Z,38.8
2017-03-09T11:21:42.736Z,38.8
2017-03-09T11:22:50.897Z,38.9
2017-03-09T11:23:51.135Z,38.8
2017-03-09T11:24:42.899Z,38.8
2017-03-09T11:25:43.660Z,38.8
2017-03-09T11:26:44.191Z,38.8
2017-03-09T11:27:46.054Z,38.7
2017-03-09T11:28:44.101Z,38.7
2017-03-09T11:29:44.300Z,38.7
2017-03-09T11:30:44.215Z,38.6
2017-03-09T11:31:44.218Z,38.6
2017-03-09T11:32:43.743Z,38.7
2017-03-09T11:33:43.753Z,38.7
2017-03-09T11:34:45.561Z,38.7
2017-03-09T11:35:44.750Z,38.8
2017-03-09T11:36:44.485Z,38.8
2017-03-09T11:37:44.544Z,38.9
2017-03-09T11:38:43.486Z,38.9
2017-03-09T11:39:44.641Z,38.9
2017-03-09T11:40:44.663Z,38.9
2017-03-09T11:41:44.783Z,38.9
2017-03-09T11:42:44.767Z,38.9
2017-03-09T11:43:44.768Z,39
2017-03-09T11:44:45.584Z,39
2017-03-09T11:45:44.809Z,39.1
2017-03-09T11:46:44.986Z,39.1
2017-03-09T11:47:44.112Z,39.1
2017-03-09T11:50:46.261Z,39
2017-03-09T11:51:48.979Z,39
2017-03-09T11:52:44.838Z,39
2017-03-09T11:53:45.650Z,39
2017-03-09T11:54:55.038Z,39.1
2017-03-09T11:55:45.515Z,39.2
2017-03-09T11:56:48.564Z,39.3
2017-03-09T11:57:45.690Z,39.2
2017-03-09T11:58:45.904Z,39.2
2017-03-09T11:59:44.849Z,39.3
2017-03-09T12:00:47.793Z,39.2
2017-03-09T12:01:46.643Z,39.2
2017-03-09T12:02:46.539Z,39.3
2017-03-09T12:03:47.547Z,39.3
2017-03-09T12:04:46.730Z,39.4
2017-03-09T12:05:46.366Z,39.4
2017-03-09T12:06:46.111Z,39.3
2017-03-09T12:07:45.121Z,39.3
2017-03-09T12:08:46.237Z,39.1
2017-03-09T12:09:45.152Z,38.8
2017-03-09T12:10:45.268Z,38.7
2017-03-09T12:11:45.370Z,38.4
2017-03-09T12:12:46.403Z,38.2
2017-03-09T12:13:45.355Z,38.1
2017-03-09T12:14:48.335Z,38
2017-03-09T12:15:45.328Z,37.8
2017-03-09T12:16:45.443Z,37.7
2017-03-09T12:17:46.436Z,37.7
2017-03-09T12:18:46.557Z,37.6
2017-03-09T12:19:47.164Z,37.5
2017-03-09T12:20:47.259Z,37.4
2017-03-09T12:21:45.726Z,37.3
2017-03-09T12:22:45.815Z,37.2
2017-03-09T12:23:45.747Z,37.1
2017-03-09T12:24:46.415Z,37.1
2017-03-09T12:25:47.809Z,37
2017-03-09T12:26:49.357Z,36.9
2017-03-09T12:27:47.341Z,36.8
2017-03-09T12:28:46.588Z,36.7
2017-03-09T12:29:46.554Z,36.7
2017-03-09T12:30:47.702Z,36.6
2017-03-09T12:31:46.741Z,36.6
2017-03-09T12:32:46.322Z,36.5
2017-03-09T12:33:47.448Z,36.5
2017-03-09T12:34:46.399Z,36.5
2017-03-09T12:35:47.425Z,36.4
2017-03-09T12:36:46.486Z,36.5
2017-03-09T12:37:48.240Z,36.5
2017-03-09T12:38:47.532Z,36.5
2017-03-09T12:39:47.202Z,36.5
2017-03-09T12:40:47.300Z,36.5
2017-03-09T12:41:48.640Z,36.5
2017-03-09T12:42:46.703Z,36.5
2017-03-09T12:43:48.611Z,36.5
2017-03-09T12:44:48.094Z,36.5
2017-03-09T12:45:48.201Z,36.6
2017-03-09T12:46:48.021Z,36.6
2017-03-09T12:47:49.745Z,36.6
2017-03-09T12:48:47.646Z,36.6
2017-03-09T12:49:48.197Z,36.6
2017-03-09T12:50:51.938Z,36.6
2017-03-09T12:51:49.694Z,36.6
2017-03-09T12:52:49.038Z,36.6
2017-03-09T12:53:47.283Z,36.7
2017-03-09T12:54:47.379Z,36.6
2017-03-09T12:55:48.540Z,36.6
2017-03-09T12:56:48.632Z,36.6
2017-03-09T12:57:47.641Z,36.6
2017-03-09T12:58:48.656Z,36.6
2017-03-09T12:59:47.702Z,36.6
2017-03-09T13:00:49.483Z,36.7
2017-03-09T13:01:47.767Z,36.7
2017-03-09T13:02:49.260Z,36.7
2017-03-09T13:03:49.039Z,36.7
2017-03-09T13:04:48.993Z,36.7
2017-03-09T13:05:47.934Z,36.7
2017-03-09T13:06:49.118Z,36.7
2017-03-09T13:07:49.784Z,36.7
2017-03-09T13:08:48.755Z,36.7
2017-03-09T13:09:50.737Z,36.7
2017-03-09T13:10:48.898Z,36.7
2017-03-09T13:11:50.078Z,36.7
2017-03-09T13:12:49.363Z,36.7
2017-03-09T13:13:49.442Z,36.7
2017-03-09T13:14:48.403Z,36.7
2017-03-09T13:15:49.651Z,36.7
2017-03-09T13:16:49.497Z,36.7
2017-03-09T13:17:49.540Z,36.7
2017-03-09T13:18:51.030Z,36.7
2017-03-09T13:19:50.072Z,36.7
2017-03-09T13:20:49.828Z,36.8
2017-03-09T13:21:48.913Z,36.8
2017-03-09T13:22:51.501Z,36.8
2017-03-09T13:23:48.804Z,36.7
2017-03-09T13:24:50.525Z,36.7
2017-03-09T13:25:49.551Z,36.7
2017-03-09T13:26:50.549Z,36.8
2017-03-09T13:27:50.421Z,36.8
2017-03-09T13:28:50.099Z,36.8